Time;durP1;ratioP1;P1;durP2;ratioP2;P2;SDS_P1;SDS_P2;PMS_P1;PMS_P2;Temp;Humidity;BMP_temperature;BMP_pressure;BME280_temperature;BME280_humidity;BME280_pressure;Samples;Min_cycle;Max_cycle;Signal;HPM_P1;HPM_P2
2023/02/27 00:00:19;;;;;;;7.90;7.60;;;4.00;18.10;;;;;;4965066;28;20182;-51
2023/02/27 00:02:47;;;;;;;7.77;7.47;;;4.10;18.10;;;;;;4963576;28;20212;-51
2023/02/27 00:05:14;;;;;;;8.47;8.07;;;4.10;18.20;;;;;;4964673;28;20509;-49
2023/02/27 00:07:40;;;;;;;7.70;7.40;;;4.10;18.00;;;;;;4961862;28;20426;-49
2023/02/27 00:10:08;;;;;;;7.87;7.57;;;4.20;17.80;;;;;;4965247;28;20779;-53
2023/02/27 00:12:37;;;;;;;8.13;7.83;;;4.30;17.60;;;;;;4961461;28;20634;-52
2023/02/27 00:15:09;;;;;;;7.40;7.17;;;4.20;17.80;;;;;;4961638;28;20752;-52
2023/02/27 00:17:35;;;;;;;7.70;7.40;;;4.30;17.70;;;;;;4956769;28;20466;-50
2023/02/27 00:20:02;;;;;;;7.60;7.20;;;4.30;17.50;;;;;;4968870;28;20429;-51
2023/02/27 00:22:27;;;;;;;8.13;7.73;;;4.20;17.90;;;;;;4967567;28;20437;-53
2023/02/27 00:24:53;;;;;;;7.40;7.20;;;4.30;17.90;;;;;;4961844;28;20425;-52
2023/02/27 00:27:19;;;;;;;7.20;6.90;;;4.30;17.80;;;;;;4964870;28;20185;-52
2023/02/27 00:29:44;;;;;;;7.80;7.50;;;4.40;18.00;;;;;;4963006;28;20240;-55
2023/02/27 00:32:10;;;;;;;7.23;6.87;;;4.30;18.00;;;;;;4962357;28;20285;-53
2023/02/27 00:34:35;;;;;;;7.60;7.30;;;4.30;18.40;;;;;;4964087;28;20592;-49
2023/02/27 00:37:01;;;;;;;7.67;7.37;;;4.40;17.80;;;;;;4961227;28;20205;-51
2023/02/27 00:39:27;;;;;;;8.80;8.20;;;4.30;18.00;;;;;;4964923;28;20182;-49
2023/02/27 00:41:52;;;;;;;7.60;7.30;;;4.30;17.80;;;;;;4962523;28;20455;-53
2023/02/27 00:44:18;;;;;;;7.73;7.40;;;4.20;18.00;;;;;;4964759;28;20244;-52
2023/02/27 00:46:44;;;;;;;7.83;7.53;;;4.20;18.20;;;;;;4961905;28;20839;-52
2023/02/27 00:49:09;;;;;;;7.60;7.30;;;4.20;18.20;;;;;;4967500;28;20702;-53
2023/02/27 00:51:35;;;;;;;8.30;7.93;;;4.20;18.20;;;;;;4961048;28;20540;-53
2023/02/27 00:54:01;;;;;;;7.40;7.10;;;4.20;17.80;;;;;;4966680;28;20186;-51
2023/02/27 00:56:26;;;;;;;7.83;7.43;;;4.20;17.80;;;;;;4960576;28;20210;-51
2023/02/27 00:58:52;;;;;;;6.83;6.63;;;4.30;17.70;;;;;;4966262;28;20209;-53
2023/02/27 01:01:17;;;;;;;7.43;7.23;;;4.30;17.70;;;;;;4965162;28;20178;-53
2023/02/27 01:03:43;;;;;;;7.60;7.30;;;4.30;17.90;;;;;;4963015;28;20273;-55
2023/02/27 01:06:09;;;;;;;7.57;7.27;;;4.40;17.90;;;;;;4963174;28;20571;-52
2023/02/27 01:08:34;;;;;;;7.73;7.43;;;4.30;18.20;;;;;;4963713;28;20280;-53
2023/02/27 01:11:00;;;;;;;7.37;7.10;;;4.30;17.80;;;;;;4961112;28;20193;-52
2023/02/27 01:13:25;;;;;;;7.70;7.30;;;4.30;17.50;;;;;;4963851;28;20193;-51
2023/02/27 01:15:51;;;;;;;8.00;7.60;;;4.20;17.70;;;;;;4962739;28;20673;-54
2023/02/27 01:18:17;;;;;;;8.23;7.77;;;4.20;17.90;;;;;;4965472;28;20300;-53
2023/02/27 01:20:43;;;;;;;7.67;7.40;;;4.20;17.90;;;;;;4962421;28;20182;-54
2023/02/27 01:23:08;;;;;;;7.63;7.23;;;4.10;17.80;;;;;;4963597;28;20827;-52
2023/02/27 01:25:34;;;;;;;8.27;7.97;;;4.10;17.90;;;;;;4960514;28;20194;-53
2023/02/27 01:28:00;;;;;;;8.93;8.50;;;4.10;18.00;;;;;;4960527;28;20554;-53
2023/02/27 01:30:25;;;;;;;7.97;7.67;;;4.10;18.40;;;;;;4962887;28;20218;-51
2023/02/27 01:32:51;;;;;;;7.63;7.33;;;4.00;18.20;;;;;;4965989;28;21495;-55
2023/02/27 01:35:17;;;;;;;8.33;7.90;;;4.10;18.00;;;;;;4965894;28;20422;-50
2023/02/27 01:37:43;;;;;;;7.27;7.07;;;4.10;18.10;;;;;;4966456;28;20578;-53
2023/02/27 01:40:09;;;;;;;8.10;7.80;;;4.10;18.10;;;;;;4970409;28;20186;-52
2023/02/27 01:42:35;;;;;;;8.60;8.30;;;4.10;18.30;;;;;;4968775;28;20418;-54
2023/02/27 01:45:10;;;;;;;8.23;7.77;;;4.10;18.20;;;;;;4961621;28;20429;-51
2023/02/27 01:47:40;;;;;;;7.30;7.00;;;4.20;18.10;;;;;;4966799;28;20187;-54
2023/02/27 01:50:07;;;;;;;8.80;8.20;;;4.20;18.20;;;;;;4959313;28;20529;-51
2023/02/27 01:52:34;;;;;;;7.60;7.30;;;4.20;18.10;;;;;;4956717;28;20914;-50
2023/02/27 01:55:01;;;;;;;7.07;6.67;;;4.20;18.00;;;;;;4970277;28;20418;-54
2023/02/27 01:57:27;;;;;;;8.30;7.93;;;4.30;18.20;;;;;;4958918;28;20461;-54
2023/02/27 01:59:52;;;;;;;7.83;7.53;;;4.20;18.30;;;;;;4966807;28;20422;-53
2023/02/27 02:02:28;;;;;;;8.23;7.90;;;4.30;18.20;;;;;;4967180;28;20174;-50
2023/02/27 02:04:55;;;;;;;8.67;8.37;;;4.30;18.30;;;;;;4950858;28;20190;-50
2023/02/27 02:07:21;;;;;;;8.27;7.87;;;4.40;18.00;;;;;;4959528;28;20786;-49
2023/02/27 02:09:53;;;;;;;8.83;8.43;;;4.40;17.90;;;;;;4960178;28;20463;-48
2023/02/27 02:12:23;;;;;;;7.70;7.40;;;4.40;18.00;;;;;;4961755;28;20417;-49
2023/02/27 02:14:50;;;;;;;8.60;8.13;;;4.30;18.10;;;;;;4964271;28;20472;-50
2023/02/27 02:17:43;;;;;;;7.87;7.67;;;4.40;17.90;;;;;;4961115;28;20462;-51
2023/02/27 02:20:08;;;;;;;9.10;8.60;;;4.40;17.70;;;;;;4964245;28;20425;-50
2023/02/27 02:22:46;;;;;;;8.50;8.20;;;4.40;17.90;;;;;;4966889;28;20963;-52
2023/02/27 02:25:30;;;;;;;8.07;7.77;;;4.00;18.60;;;;;;4964899;28;20425;-53
2023/02/27 02:28:34;;;;;;;9.10;8.60;;;3.70;19.50;;;;;;4963457;28;20440;-52
2023/02/27 02:31:37;;;;;;;8.53;8.03;;;3.80;20.10;;;;;;4968100;28;20425;-50
2023/02/27 02:34:21;;;;;;;7.93;7.63;;;3.60;19.90;;;;;;4968824;28;20971;-50
2023/02/27 02:36:55;;;;;;;8.30;8.00;;;3.80;20.10;;;;;;4963797;28;20451;-53
2023/02/27 02:39:33;;;;;;;8.50;8.07;;;3.90;19.40;;;;;;4964058;28;20433;-49
2023/02/27 02:42:29;;;;;;;8.57;8.27;;;3.90;19.30;;;;;;4957744;28;20433;-50
2023/02/27 02:45:06;;;;;;;8.17;7.87;;;3.70;20.00;;;;;;4957217;28;20783;-49
2023/02/27 02:50:21;;;;;;;8.87;8.47;;;4.00;19.10;;;;;;4981802;28;20472;-46
2023/02/27 02:53:20;;;;;;;8.30;8.00;;;4.10;19.00;;;;;;4970196;28;20536;-45
2023/02/27 02:56:01;;;;;;;8.57;8.27;;;4.20;19.00;;;;;;4973381;28;20418;-48
2023/02/27 02:58:32;;;;;;;8.40;8.10;;;4.20;18.90;;;;;;4957777;28;20469;-49
2023/02/27 03:01:20;;;;;;;9.30;9.00;;;4.30;18.50;;;;;;4954639;28;20422;-48
2023/02/27 03:04:00;;;;;;;9.87;9.23;;;4.40;18.50;;;;;;4954204;28;20425;-44
2023/02/27 03:06:39;;;;;;;8.50;8.20;;;4.40;18.90;;;;;;4971127;28;21009;-47
2023/02/27 03:09:17;;;;;;;9.27;8.90;;;4.40;18.40;;;;;;4954101;28;20784;-48
2023/02/27 03:11:47;;;;;;;9.17;8.80;;;4.20;19.00;;;;;;4954071;28;20459;-47
2023/02/27 03:14:29;;;;;;;9.13;8.77;;;4.10;18.70;;;;;;4953955;28;20410;-49
2023/02/27 03:17:00;;;;;;;9.57;8.97;;;3.90;19.50;;;;;;4953743;28;20450;-44
2023/02/27 03:19:37;;;;;;;8.63;8.33;;;4.10;19.20;;;;;;4953845;28;20414;-46
2023/02/27 03:22:09;;;;;;;8.97;8.57;;;4.10;19.00;;;;;;4953933;28;20433;-47
2023/02/27 03:24:50;;;;;;;9.50;9.07;;;4.20;18.90;;;;;;4953936;28;20468;-48
2023/02/27 03:27:17;;;;;;;9.50;9.10;;;4.30;18.80;;;;;;4953848;28;20917;-45
2023/02/27 03:30:00;;;;;;;9.70;9.20;;;4.40;18.90;;;;;;4954106;28;20449;-44
2023/02/27 03:32:51;;;;;;;9.60;9.20;;;4.30;18.60;;;;;;4953126;28;20429;-44
2023/02/27 03:35:18;;;;;;;8.67;8.37;;;4.40;18.60;;;;;;4953882;28;20504;-49
2023/02/27 03:38:00;;;;;;;9.47;8.97;;;4.30;18.80;;;;;;4952651;28;20466;-44
2023/02/27 03:41:05;;;;;;;9.30;8.90;;;4.30;18.70;;;;;;4971745;28;20477;-44
2023/02/27 03:43:52;;;;;;;10.40;9.87;;;4.30;18.80;;;;;;4931029;28;20422;-43
2023/02/27 03:46:22;;;;;;;9.30;8.90;;;4.30;18.70;;;;;;4953619;28;20933;-44
2023/02/27 03:48:48;;;;;;;9.70;9.30;;;4.20;18.50;;;;;;4953044;28;20441;-45
2023/02/27 03:51:18;;;;;;;10.20;9.80;;;4.20;18.90;;;;;;4953035;28;20779;-44
2023/02/27 03:53:59;;;;;;;9.83;9.43;;;4.10;19.00;;;;;;4952740;28;20185;-46
2023/02/27 03:56:30;;;;;;;9.63;9.33;;;3.90;20.10;;;;;;4953039;28;20959;-43
2023/02/27 03:58:57;;;;;;;9.40;9.00;;;4.00;19.70;;;;;;4952814;28;20488;-49
2023/02/27 04:01:23;;;;;;;9.67;9.17;;;4.00;19.50;;;;;;4952599;28;20550;-59
2023/02/27 04:03:55;;;;;;;8.50;8.20;;;4.20;19.30;;;;;;4953042;28;20981;-57
2023/02/27 04:09:33;;;;;;;9.20;8.90;;;4.20;19.40;;;;;;4970303;28;20517;-59
2023/02/27 04:12:50;;;;;;;10.07;9.67;;;4.20;19.00;;;;;;4951916;28;20852;-59
2023/02/27 04:15:45;;;;;;;9.77;9.40;;;4.20;18.90;;;;;;4873055;29;20455;-59
2023/02/27 04:18:32;;;;;;;9.83;9.43;;;4.20;19.10;;;;;;4873527;29;20621;-58
2023/02/27 04:21:10;;;;;;;9.53;9.23;;;4.20;19.40;;;;;;4945126;28;20426;-58
2023/02/27 04:23:45;;;;;;;10.53;10.10;;;4.10;19.30;;;;;;4970303;28;20413;-57
2023/02/27 04:26:20;;;;;;;9.80;9.40;;;4.20;19.10;;;;;;4952664;28;20414;-58
2023/02/27 04:29:02;;;;;;;9.70;9.30;;;4.20;19.30;;;;;;4951534;28;20435;-57
2023/02/27 04:31:44;;;;;;;9.40;9.00;;;4.10;19.50;;;;;;4957695;28;20429;-57
2023/02/27 04:34:18;;;;;;;9.50;9.10;;;4.20;19.50;;;;;;4971240;28;20425;-59
2023/02/27 04:36:50;;;;;;;10.20;9.50;;;4.20;19.10;;;;;;4970453;28;20835;-58
2023/02/27 04:39:27;;;;;;;9.27;8.87;;;4.20;19.30;;;;;;4970816;28;20504;-60
2023/02/27 04:42:05;;;;;;;10.17;9.67;;;4.10;20.30;;;;;;4971417;28;20417;-58
2023/02/27 04:44:35;;;;;;;10.17;9.70;;;4.10;19.50;;;;;;4971173;28;20417;-59
2023/02/27 04:47:03;;;;;;;9.90;9.40;;;4.20;19.60;;;;;;4971441;28;20942;-58
2023/02/27 04:49:42;;;;;;;8.50;8.20;;;4.30;18.90;;;;;;4971139;28;20437;-60
2023/02/27 04:52:12;;;;;;;9.03;8.63;;;4.40;18.80;;;;;;4971003;28;20424;-59
2023/02/27 04:54:45;;;;;;;9.93;9.37;;;4.50;18.70;;;;;;4989208;28;20698;-59
2023/02/27 04:57:19;;;;;;;9.47;8.83;;;4.60;18.50;;;;;;4972242;28;20854;-58
2023/02/27 04:59:51;;;;;;;9.10;8.70;;;4.70;18.20;;;;;;4971369;28;20436;-44
2023/02/27 05:02:23;;;;;;;9.90;9.50;;;4.70;18.20;;;;;;4971153;28;20793;-44
2023/02/27 05:04:59;;;;;;;8.97;8.57;;;4.50;18.80;;;;;;4971782;28;20923;-44
2023/02/27 05:07:33;;;;;;;9.43;9.00;;;4.60;18.70;;;;;;4971748;28;20425;-49
2023/02/27 05:10:04;;;;;;;8.67;8.27;;;4.60;18.60;;;;;;4972205;28;20510;-52
2023/02/27 05:12:41;;;;;;;9.60;9.30;;;4.60;18.40;;;;;;4972008;28;20417;-48
2023/02/27 05:15:15;;;;;;;9.13;8.67;;;4.60;18.50;;;;;;4972251;28;20417;-48
2023/02/27 05:18:01;;;;;;;9.37;8.97;;;4.60;18.40;;;;;;4972446;28;20444;-51
2023/02/27 05:20:48;;;;;;;10.33;9.73;;;4.60;18.40;;;;;;4972538;28;20421;-49
2023/02/27 05:23:35;;;;;;;9.63;9.23;;;4.60;18.20;;;;;;4971769;28;20413;-47
2023/02/27 05:26:12;;;;;;;10.43;9.93;;;4.60;18.20;;;;;;4970275;28;20454;-45
2023/02/27 05:29:02;;;;;;;10.13;9.73;;;4.60;18.20;;;;;;4974608;28;20943;-49
2023/02/27 05:31:35;;;;;;;10.77;10.17;;;4.60;18.10;;;;;;4970500;28;20524;-48
2023/02/27 05:34:10;;;;;;;9.70;9.00;;;4.60;18.30;;;;;;4958619;28;20787;-48
2023/02/27 05:36:42;;;;;;;9.47;8.90;;;4.50;18.30;;;;;;4971786;28;20942;-45
2023/02/27 05:39:10;;;;;;;10.17;9.77;;;4.40;18.40;;;;;;4984803;28;20449;-49
2023/02/27 05:41:49;;;;;;;10.10;9.60;;;4.40;18.50;;;;;;4986301;28;20815;-45
2023/02/27 05:44:22;;;;;;;9.50;9.10;;;4.30;18.80;;;;;;4972582;28;20782;-50
2023/02/27 05:47:06;;;;;;;9.70;9.30;;;4.30;18.70;;;;;;4989533;28;20458;-45
2023/02/27 05:49:39;;;;;;;9.77;9.37;;;4.20;18.90;;;;;;4959901;28;20713;-59
2023/02/27 05:52:09;;;;;;;8.57;8.17;;;4.20;18.90;;;;;;4970855;28;20420;-58
2023/02/27 05:54:42;;;;;;;9.10;8.67;;;4.10;19.20;;;;;;4971763;28;20500;-57
2023/02/27 05:57:14;;;;;;;8.97;8.57;;;4.00;19.70;;;;;;4971613;28;20770;-57
2023/02/27 05:59:48;;;;;;;9.70;9.20;;;4.00;19.90;;;;;;4971398;28;20413;-59
2023/02/27 06:02:14;;;;;;;9.60;9.20;;;4.00;19.40;;;;;;4971193;28;20462;-46
2023/02/27 06:04:40;;;;;;;9.47;9.07;;;4.00;19.50;;;;;;4972712;28;20750;-43
2023/02/27 06:07:06;;;;;;;9.90;9.30;;;4.00;19.40;;;;;;4973052;28;20845;-43
2023/02/27 06:09:33;;;;;;;10.07;9.67;;;4.00;19.50;;;;;;4973074;28;20496;-43
2023/02/27 06:12:00;;;;;;;9.07;8.67;;;3.80;20.10;;;;;;4972938;28;20178;-44
2023/02/27 06:14:26;;;;;;;9.63;9.23;;;3.80;20.10;;;;;;4975010;28;20476;-43
2023/02/27 06:16:51;;;;;;;9.73;9.30;;;3.80;20.10;;;;;;4976721;28;20425;-48
2023/02/27 06:19:17;;;;;;;8.47;8.17;;;3.90;19.70;;;;;;4977228;28;20421;-47
2023/02/27 06:21:43;;;;;;;9.60;9.20;;;3.80;20.10;;;;;;4975808;28;20185;-43
2023/02/27 06:24:08;;;;;;;10.57;10.07;;;3.90;19.60;;;;;;4976716;28;20305;-46
2023/02/27 06:26:34;;;;;;;10.33;9.73;;;3.90;19.60;;;;;;4976420;28;20500;-48
2023/02/27 06:29:00;;;;;;;9.40;9.00;;;3.90;19.80;;;;;;4977103;28;20182;-44
2023/02/27 06:31:26;;;;;;;9.40;9.10;;;3.90;19.70;;;;;;4976556;28;20201;-43
2023/02/27 06:33:51;;;;;;;9.67;9.17;;;3.90;19.80;;;;;;4994146;28;20236;-49
2023/02/27 06:36:17;;;;;;;9.73;9.20;;;3.80;20.00;;;;;;4976572;28;20227;-44
2023/02/27 06:38:42;;;;;;;9.00;8.60;;;3.60;19.90;;;;;;4976046;28;20218;-47
2023/02/27 06:41:08;;;;;;;10.10;9.50;;;3.60;19.90;;;;;;4976201;28;20256;-48
2023/02/27 06:43:35;;;;;;;10.27;9.77;;;3.50;20.40;;;;;;4976230;28;20645;-48
2023/02/27 06:46:02;;;;;;;9.93;9.43;;;3.40;20.60;;;;;;4976283;28;20190;-46
2023/02/27 06:48:28;;;;;;;9.87;9.27;;;3.50;20.20;;;;;;4976233;28;20814;-45
2023/02/27 06:50:55;;;;;;;10.50;9.90;;;3.70;20.00;;;;;;4961522;28;20441;-44
2023/02/27 06:53:22;;;;;;;10.37;9.87;;;3.70;20.00;;;;;;4956304;28;20505;-46
2023/02/27 06:55:48;;;;;;;9.93;9.47;;;3.60;20.10;;;;;;4957027;28;20741;-48
2023/02/27 06:58:14;;;;;;;9.97;9.37;;;3.50;20.40;;;;;;4956911;28;20533;-58
2023/02/27 07:00:40;;;;;;;10.77;10.27;;;3.40;20.40;;;;;;4966028;28;20817;-58
2023/02/27 07:03:06;;;;;;;11.20;10.60;;;3.50;20.10;;;;;;4974720;28;20413;-58
2023/02/27 07:05:32;;;;;;;9.67;9.27;;;3.40;20.20;;;;;;4974825;28;20422;-57
2023/02/27 07:07:57;;;;;;;10.60;10.00;;;3.50;20.40;;;;;;4975823;28;20439;-57
2023/02/27 07:10:23;;;;;;;10.07;9.43;;;3.50;20.20;;;;;;4976199;28;20472;-59
2023/02/27 07:12:49;;;;;;;10.20;9.70;;;3.40;20.90;;;;;;4975716;28;20197;-58
2023/02/27 07:15:15;;;;;;;11.27;10.47;;;3.50;20.20;;;;;;4975766;28;20280;-57
2023/02/27 07:17:41;;;;;;;9.20;8.80;;;3.50;20.50;;;;;;4974911;28;20464;-57
2023/02/27 07:20:09;;;;;;;9.30;8.90;;;3.70;20.50;;;;;;4975098;28;20504;-59
2023/02/27 07:22:35;;;;;;;9.30;8.80;;;3.80;20.00;;;;;;4974480;28;20604;-58
2023/02/27 07:25:01;;;;;;;9.23;8.83;;;3.80;20.00;;;;;;4974320;28;20851;-59
2023/02/27 07:27:28;;;;;;;10.87;10.23;;;3.50;19.90;;;;;;4974810;28;20421;-58
2023/02/27 07:29:53;;;;;;;10.00;9.60;;;3.50;20.80;;;;;;4975268;28;20933;-58
2023/02/27 07:32:19;;;;;;;9.80;9.30;;;3.60;20.20;;;;;;4974969;28;20504;-59
2023/02/27 07:34:45;;;;;;;10.13;9.63;;;3.70;20.00;;;;;;4972491;28;20237;-58
2023/02/27 07:37:11;;;;;;;9.23;8.63;;;3.70;20.00;;;;;;4963677;28;20866;-59
2023/02/27 07:39:38;;;;;;;9.70;9.20;;;3.80;20.00;;;;;;4971983;28;20237;-54
2023/02/27 07:42:04;;;;;;;9.90;9.50;;;3.90;20.10;;;;;;4975309;28;20905;-53
2023/02/27 07:44:29;;;;;;;9.17;8.70;;;4.00;20.20;;;;;;4975241;28;20429;-55
2023/02/27 07:46:55;;;;;;;9.70;9.30;;;4.00;19.60;;;;;;4975022;28;20185;-56
2023/02/27 07:49:20;;;;;;;9.70;9.20;;;4.10;19.30;;;;;;4975414;28;20587;-56
2023/02/27 07:51:46;;;;;;;10.20;9.67;;;4.10;19.00;;;;;;4974884;28;20185;-58
2023/02/27 07:54:12;;;;;;;10.17;9.57;;;4.00;19.80;;;;;;4975150;28;20209;-43
2023/02/27 07:56:37;;;;;;;10.37;9.80;;;4.00;19.40;;;;;;4975066;28;20285;-43
2023/02/27 07:59:03;;;;;;;10.50;9.80;;;4.00;19.20;;;;;;4975035;28;20216;-44
2023/02/27 08:01:29;;;;;;;9.63;9.13;;;4.00;19.40;;;;;;4970973;28;20237;-43
2023/02/27 08:03:55;;;;;;;9.23;8.73;;;4.00;19.40;;;;;;4968428;28;20210;-43
2023/02/27 08:06:22;;;;;;;9.97;9.47;;;3.80;20.10;;;;;;4966591;28;20171;-47
2023/02/27 08:08:48;;;;;;;9.60;9.20;;;3.80;20.00;;;;;;4965521;28;20426;-48
2023/02/27 08:11:14;;;;;;;9.97;9.47;;;3.70;20.00;;;;;;4964727;28;20981;-46
2023/02/27 08:13:40;;;;;;;10.80;10.10;;;3.70;20.00;;;;;;4961078;28;20429;-44
2023/02/27 08:16:06;;;;;;;9.37;8.97;;;3.80;20.00;;;;;;4969663;28;20504;-47
2023/02/27 08:18:32;;;;;;;11.20;10.50;;;3.80;20.10;;;;;;4970431;28;20469;-44
2023/02/27 08:20:58;;;;;;;11.00;10.30;;;3.90;19.60;;;;;;4972067;28;20444;-48
2023/02/27 08:23:23;;;;;;;9.70;9.30;;;4.00;19.20;;;;;;4968975;28;20435;-43
2023/02/27 08:25:49;;;;;;;10.43;9.47;;;4.00;19.20;;;;;;4966951;28;20249;-46
2023/02/27 08:28:17;;;;;;;9.47;9.07;;;3.70;19.90;;;;;;4964299;28;20182;-42
2023/02/27 08:30:43;;;;;;;10.63;10.07;;;3.80;20.00;;;;;;4965756;28;20947;-45
2023/02/27 08:33:09;;;;;;;11.03;10.13;;;3.70;20.00;;;;;;4963980;28;20765;-58
2023/02/27 08:35:35;;;;;;;9.47;8.80;;;3.50;19.80;;;;;;4973203;28;20487;-58
2023/02/27 08:38:01;;;;;;;10.30;9.80;;;3.40;20.30;;;;;;4967423;28;20552;-57
2023/02/27 08:40:26;;;;;;;9.87;9.43;;;3.50;19.80;;;;;;4965574;28;20178;-57
2023/02/27 08:42:52;;;;;;;10.50;10.00;;;3.50;21.00;;;;;;4957143;28;20708;-55
2023/02/27 08:45:17;;;;;;;10.13;9.53;;;3.80;21.20;;;;;;4955474;28;20597;-55
2023/02/27 08:47:46;;;;;;;10.60;9.93;;;4.00;20.20;;;;;;4965777;28;20262;-46
2023/02/27 08:50:12;;;;;;;10.77;10.07;;;4.10;19.10;;;;;;4969528;28;20186;-56
2023/02/27 08:52:38;;;;;;;9.07;8.67;;;4.20;19.40;;;;;;4959233;28;20761;-58
2023/02/27 08:55:04;;;;;;;9.63;9.07;;;4.30;19.00;;;;;;4971853;28;20424;-58
2023/02/27 08:57:30;;;;;;;9.77;9.30;;;4.40;18.50;;;;;;4974645;28;20464;-58
2023/02/27 08:59:55;;;;;;;9.97;9.37;;;4.50;18.30;;;;;;4965041;28;20432;-56
2023/02/27 09:02:25;;;;;;;16.57;15.17;;;4.60;17.40;;;;;;4978857;28;20201;-46
2023/02/27 09:04:53;;;;;;;8.97;8.57;;;4.60;17.50;;;;;;4970739;28;20547;-45
2023/02/27 09:07:19;;;;;;;9.70;9.20;;;4.70;17.20;;;;;;4955294;28;20930;-46
2023/02/27 09:09:45;;;;;;;10.10;9.47;;;4.60;17.10;;;;;;4955795;28;20472;-43
2023/02/27 09:12:11;;;;;;;11.40;10.70;;;4.50;17.50;;;;;;4955933;28;20421;-46
2023/02/27 09:14:38;;;;;;;10.20;9.80;;;4.60;17.60;;;;;;4956281;28;20237;-48
2023/02/27 09:17:05;;;;;;;11.07;10.47;;;4.80;17.20;;;;;;4955519;28;20424;-42
2023/02/27 09:19:30;;;;;;;10.60;10.10;;;4.80;16.80;;;;;;4955533;28;20414;-42
2023/02/27 09:21:56;;;;;;;11.37;10.33;;;4.80;17.00;;;;;;4954599;28;20784;-44
2023/02/27 09:24:21;;;;;;;10.80;10.20;;;4.70;16.90;;;;;;4955100;28;20179;-44
2023/02/27 09:26:47;;;;;;;10.30;9.80;;;4.70;17.00;;;;;;4954666;28;20681;-46
2023/02/27 09:29:13;;;;;;;11.33;10.73;;;4.80;16.80;;;;;;4954829;28;20189;-43
2023/02/27 09:31:39;;;;;;;10.07;9.47;;;5.00;16.20;;;;;;4954332;28;20426;-43
2023/02/27 09:34:04;;;;;;;9.90;9.50;;;4.90;17.10;;;;;;4954615;28;20187;-42
2023/02/27 09:36:30;;;;;;;9.73;9.27;;;5.10;15.90;;;;;;4954550;28;20197;-43
2023/02/27 09:38:58;;;;;;;9.23;8.80;;;5.40;15.20;;;;;;4954756;28;20305;-43
2023/02/27 09:41:42;;;;;;;9.37;8.97;;;5.50;14.80;;;;;;4954434;28;20193;-57
2023/02/27 09:44:34;;;;;;;9.03;8.53;;;5.60;14.70;;;;;;4971914;28;20818;-59
2023/02/27 09:47:01;;;;;;;8.87;8.30;;;5.60;14.10;;;;;;4958196;28;20425;-58
2023/02/27 09:49:39;;;;;;;9.90;9.40;;;5.70;14.00;;;;;;4967776;28;20444;-56
2023/02/27 09:52:10;;;;;;;9.57;8.90;;;5.80;14.00;;;;;;5000648;28;20471;-59
2023/02/27 09:54:36;;;;;;;10.13;9.37;;;5.80;13.90;;;;;;4958304;28;20480;-57
2023/02/27 09:57:05;;;;;;;9.53;9.13;;;5.60;14.50;;;;;;4957862;28;20887;-57
2023/02/27 09:59:53;;;;;;;10.03;9.40;;;5.60;14.50;;;;;;4958292;28;20179;-59
2023/02/27 10:02:21;;;;;;;9.10;8.67;;;5.60;14.30;;;;;;4957597;28;20784;-56
2023/02/27 10:05:16;;;;;;;9.77;9.27;;;5.80;13.50;;;;;;4990197;28;20418;-56
2023/02/27 10:08:01;;;;;;;8.37;8.03;;;5.80;14.10;;;;;;4938802;28;21102;-56
2023/02/27 10:10:47;;;;;;;9.80;9.40;;;5.80;14.40;;;;;;4990394;28;20508;-53
2023/02/27 10:13:51;;;;;;;10.77;10.27;;;5.90;14.10;;;;;;4957545;28;20518;-53
2023/02/27 10:16:20;;;;;;;9.63;9.23;;;6.00;13.50;;;;;;4957737;28;20418;-54
2023/02/27 10:18:46;;;;;;;9.70;9.10;;;6.00;13.10;;;;;;4957247;28;20469;-55
2023/02/27 10:21:23;;;;;;;9.47;8.90;;;5.90;13.00;;;;;;4989989;28;20521;-57
2023/02/27 10:24:03;;;;;;;9.40;9.00;;;5.80;13.00;;;;;;4957478;28;20277;-55
2023/02/27 10:26:35;;;;;;;10.07;9.57;;;5.90;12.50;;;;;;4990083;28;20414;-56
2023/02/27 10:29:32;;;;;;;8.97;8.50;;;5.90;12.10;;;;;;4957543;28;20430;-55
2023/02/27 10:32:15;;;;;;;9.30;8.80;;;5.90;11.40;;;;;;4957377;28;20534;-53
2023/02/27 10:34:44;;;;;;;9.17;8.77;;;6.10;11.50;;;;;;4957323;28;20926;-55
2023/02/27 10:37:15;;;;;;;9.40;8.90;;;6.00;11.50;;;;;;4957454;28;20508;-56
2023/02/27 10:39:47;;;;;;;9.43;9.03;;;6.10;11.50;;;;;;4957484;28;20600;-55
2023/02/27 10:42:15;;;;;;;9.03;8.53;;;6.40;11.10;;;;;;4974334;28;20441;-55
2023/02/27 10:44:40;;;;;;;9.33;8.90;;;6.60;11.00;;;;;;4957273;28;20464;-55
2023/02/27 10:47:11;;;;;;;8.97;8.60;;;6.80;10.60;;;;;;4957231;28;20410;-57
2023/02/27 10:49:38;;;;;;;9.80;9.10;;;7.00;9.50;;;;;;4957000;28;20205;-56
2023/02/27 10:52:13;;;;;;;8.50;8.10;;;7.00;10.20;;;;;;4957073;28;20460;-55
2023/02/27 10:54:40;;;;;;;9.07;8.47;;;7.10;10.80;;;;;;4956918;28;20417;-61
2023/02/27 10:57:29;;;;;;;9.03;8.63;;;7.30;10.60;;;;;;4971574;28;20804;-61
2023/02/27 11:00:08;;;;;;;7.77;7.47;;;7.40;10.20;;;;;;4957823;28;20438;-60
2023/02/27 11:02:42;;;;;;;8.70;8.10;;;7.50;9.80;;;;;;4967897;28;20414;-60
2023/02/27 11:05:40;;;;;;;7.63;7.33;;;7.30;10.70;;;;;;4967199;28;20915;-60
2023/02/27 11:08:20;;;;;;;7.90;7.60;;;7.10;10.80;;;;;;4929425;28;20495;-58
2023/02/27 11:11:03;;;;;;;8.83;8.43;;;7.20;11.10;;;;;;4975958;28;20467;-60
2023/02/27 11:13:35;;;;;;;13.03;12.23;;;7.00;10.50;;;;;;4976219;28;20431;-58
2023/02/27 11:16:13;;;;;;;7.47;7.17;;;6.90;9.30;;;;;;4976172;28;20760;-58
2023/02/27 11:18:42;;;;;;;7.10;6.80;;;7.00;8.40;;;;;;4976014;28;20460;-60
2023/02/27 11:21:28;;;;;;;8.90;8.40;;;6.90;8.20;;;;;;4975623;28;20516;-60
2023/02/27 11:24:16;;;;;;;8.60;8.20;;;6.80;8.30;;;;;;4975695;28;20414;-59
2023/02/27 11:26:56;;;;;;;8.90;8.60;;;6.70;8.70;;;;;;4975696;28;20413;-61
2023/02/27 11:29:22;;;;;;;7.53;7.23;;;6.70;8.00;;;;;;4975888;28;20417;-60
2023/02/27 11:31:52;;;;;;;7.50;7.10;;;6.80;8.20;;;;;;4992752;28;20849;-57
2023/02/27 11:34:39;;;;;;;8.30;8.00;;;7.00;7.90;;;;;;4975695;28;20471;-60
2023/02/27 11:37:32;;;;;;;7.77;7.37;;;6.90;7.70;;;;;;4975358;28;20448;-60
2023/02/27 11:40:12;;;;;;;8.20;7.80;;;6.80;9.50;;;;;;4975393;28;20417;-59
2023/02/27 11:42:44;;;;;;;8.73;8.23;;;6.80;8.00;;;;;;4975074;28;20794;-58
2023/02/27 11:45:28;;;;;;;7.80;7.40;;;6.90;8.40;;;;;;4975625;28;20417;-58
2023/02/27 11:47:59;;;;;;;8.27;7.87;;;6.80;8.20;;;;;;4975352;28;20516;-58
2023/02/27 11:50:59;;;;;;;8.00;7.50;;;6.90;7.70;;;;;;4975403;28;20430;-58
2023/02/27 11:53:33;;;;;;;8.30;7.80;;;6.90;7.30;;;;;;4974971;28;20785;-59
2023/02/27 11:56:02;;;;;;;7.73;7.37;;;6.80;8.80;;;;;;4968096;28;20501;-56
2023/02/27 11:58:39;;;;;;;8.40;7.90;;;6.70;8.00;;;;;;4955656;28;20466;-58
2023/02/27 12:01:16;;;;;;;8.67;8.20;;;6.70;8.10;;;;;;4955687;28;20422;-56
2023/02/27 12:03:56;;;;;;;8.90;8.40;;;6.70;9.90;;;;;;4959274;28;20846;-56
2023/02/27 12:06:47;;;;;;;8.20;7.80;;;6.50;8.70;;;;;;4960695;28;20451;-55
2023/02/27 12:09:39;;;;;;;8.63;8.23;;;6.50;8.70;;;;;;4963048;28;20444;-58
2023/02/27 12:12:29;;;;;;;8.23;7.93;;;6.50;9.00;;;;;;4954750;28;20425;-57
2023/02/27 12:15:13;;;;;;;7.97;7.67;;;6.60;8.60;;;;;;4956071;28;20414;-57
2023/02/27 12:17:46;;;;;;;8.90;8.50;;;6.70;9.20;;;;;;4988752;28;20604;-58
2023/02/27 12:20:30;;;;;;;9.00;8.60;;;6.80;8.40;;;;;;4956517;28;20445;-55
2023/02/27 12:22:56;;;;;;;9.17;8.57;;;6.70;9.50;;;;;;4956243;28;20436;-57
2023/02/27 12:25:47;;;;;;;8.30;8.00;;;6.60;9.60;;;;;;4956355;28;20449;-56
2023/02/27 12:28:21;;;;;;;9.00;8.70;;;6.50;8.70;;;;;;4956380;28;20422;-53
2023/02/27 12:31:14;;;;;;;8.30;7.90;;;6.50;9.60;;;;;;4988221;28;20507;-57
2023/02/27 12:33:54;;;;;;;9.43;8.73;;;6.40;9.10;;;;;;4949274;28;20513;-58
2023/02/27 12:36:19;;;;;;;8.10;7.80;;;6.40;9.10;;;;;;4956308;28;20516;-53
2023/02/27 12:38:45;;;;;;;8.50;8.10;;;6.30;8.90;;;;;;4955929;28;20620;-57
2023/02/27 12:41:22;;;;;;;7.20;6.80;;;6.30;8.80;;;;;;4956046;28;20210;-56
2023/02/27 12:44:03;;;;;;;7.53;7.13;;;6.40;8.80;;;;;;4988531;28;20590;-57
2023/02/27 12:46:44;;;;;;;7.83;7.33;;;6.50;10.20;;;;;;4988463;28;20422;-57
2023/02/27 12:49:13;;;;;;;8.30;7.70;;;6.50;8.90;;;;;;4988379;28;20438;-45
2023/02/27 12:51:54;;;;;;;8.10;7.63;;;6.40;10.40;;;;;;4988206;28;20446;-43
2023/02/27 12:54:29;;;;;;;8.47;8.07;;;6.40;9.40;;;;;;4988315;28;20417;-43
2023/02/27 12:57:00;;;;;;;11.40;10.60;;;6.40;9.10;;;;;;4973341;28;20564;-42
2023/02/27 13:00:08;;;;;;;9.50;8.80;;;6.50;9.30;;;;;;4956044;28;20425;-58
2023/02/27 13:02:53;;;;;;;8.90;8.20;;;6.60;8.60;;;;;;4945034;28;20411;-56
2023/02/27 13:05:42;;;;;;;8.13;7.80;;;6.60;8.90;;;;;;4988099;28;20453;-56
2023/02/27 13:08:26;;;;;;;18.67;16.90;;;6.50;7.70;;;;;;4988060;28;20998;-58
2023/02/27 13:11:03;;;;;;;9.73;9.23;;;6.30;7.80;;;;;;4955862;28;20406;-57
2023/02/27 13:13:42;;;;;;;14.90;13.80;;;6.30;8.80;;;;;;4988041;28;20409;-57
2023/02/27 13:16:08;;;;;;;16.80;15.50;;;6.30;8.70;;;;;;4973377;28;20545;-57
2023/02/27 13:18:52;;;;;;;10.80;10.20;;;6.20;9.20;;;;;;4955693;28;21040;-56
2023/02/27 13:21:53;;;;;;;17.87;16.47;;;6.10;8.60;;;;;;4955632;28;20216;-58
2023/02/27 13:24:29;;;;;;;12.63;11.73;;;6.10;8.90;;;;;;4957781;28;20504;-56
2023/02/27 13:26:55;;;;;;;12.20;11.50;;;6.30;8.80;;;;;;4959617;28;20509;-55
2023/02/27 13:29:23;;;;;;;8.30;7.90;;;6.40;8.90;;;;;;4959676;28;20500;-57